sensor_id;sensor_type;location;lat;lon;timestamp;P1;durP1;ratioP1;P2;durP2;ratioP2
27921;SDS011;15261;50.356;10.340;2022-12-20T00:01:41;59.70;;;35.50;;
27921;SDS011;15261;50.356;10.340;2022-12-20T00:04:06;59.30;;;36.07;;
27921;SDS011;15261;50.356;10.340;2022-12-20T00:06:34;61.33;;;36.73;;
27921;SDS011;15261;50.356;10.340;2022-12-20T00:09:00;60.50;;;35.83;;
27921;SDS011;15261;50.356;10.340;2022-12-20T00:11:27;56.90;;;36.00;;
27921;SDS011;15261;50.356;10.340;2022-12-20T00:13:53;56.07;;;35.80;;
27921;SDS011;15261;50.356;10.340;2022-12-20T00:16:20;59.07;;;35.40;;
27921;SDS011;15261;50.356;10.340;2022-12-20T00:18:49;57.40;;;35.70;;
27921;SDS011;15261;50.356;10.340;2022-12-20T00:21:17;57.87;;;34.87;;
27921;SDS011;15261;50.356;10.340;2022-12-20T00:23:42;61.10;;;37.37;;
27921;SDS011;15261;50.356;10.340;2022-12-20T00:26:09;58.60;;;36.63;;
27921;SDS011;15261;50.356;10.340;2022-12-20T00:28:37;59.47;;;36.17;;
27921;SDS011;15261;50.356;10.340;2022-12-20T00:31:04;56.60;;;35.50;;
27921;SDS011;15261;50.356;10.340;2022-12-20T00:33:31;80.17;;;40.63;;
27921;SDS011;15261;50.356;10.340;2022-12-20T00:35:57;81.87;;;39.50;;
27921;SDS011;15261;50.356;10.340;2022-12-20T00:38:23;73.63;;;39.23;;
27921;SDS011;15261;50.356;10.340;2022-12-20T00:43:26;84.43;;;42.80;;
27921;SDS011;15261;50.356;10.340;2022-12-20T00:45:52;82.53;;;40.90;;
27921;SDS011;15261;50.356;10.340;2022-12-20T00:48:18;75.73;;;39.57;;
27921;SDS011;15261;50.356;10.340;2022-12-20T00:50:43;73.17;;;39.10;;
27921;SDS011;15261;50.356;10.340;2022-12-20T00:53:09;64.53;;;37.20;;
27921;SDS011;15261;50.356;10.340;2022-12-20T00:55:34;58.60;;;37.03;;
27921;SDS011;15261;50.356;10.340;2022-12-20T00:58:14;60.17;;;36.97;;
27921;SDS011;15261;50.356;10.340;2022-12-20T01:00:40;59.10;;;36.70;;
27921;SDS011;15261;50.356;10.340;2022-12-20T01:03:06;58.90;;;35.47;;
27921;SDS011;15261;50.356;10.340;2022-12-20T01:05:31;65.70;;;38.20;;
27921;SDS011;15261;50.356;10.340;2022-12-20T01:07:57;69.97;;;43.33;;
27921;SDS011;15261;50.356;10.340;2022-12-20T01:10:23;70.40;;;42.70;;
27921;SDS011;15261;50.356;10.340;2022-12-20T01:12:49;70.60;;;42.77;;
27921;SDS011;15261;50.356;10.340;2022-12-20T01:15:14;74.07;;;42.30;;
27921;SDS011;15261;50.356;10.340;2022-12-20T01:17:40;66.27;;;40.17;;
27921;SDS011;15261;50.356;10.340;2022-12-20T01:20:06;66.87;;;38.97;;
27921;SDS011;15261;50.356;10.340;2022-12-20T01:22:32;66.90;;;37.93;;
27921;SDS011;15261;50.356;10.340;2022-12-20T01:24:58;62.80;;;39.60;;
27921;SDS011;15261;50.356;10.340;2022-12-20T01:27:23;67.30;;;40.20;;
27921;SDS011;15261;50.356;10.340;2022-12-20T01:29:49;64.90;;;39.33;;
27921;SDS011;15261;50.356;10.340;2022-12-20T01:32:15;70.00;;;41.63;;
27921;SDS011;15261;50.356;10.340;2022-12-20T01:34:41;67.33;;;39.70;;
27921;SDS011;15261;50.356;10.340;2022-12-20T01:37:06;66.30;;;40.20;;
27921;SDS011;15261;50.356;10.340;2022-12-20T01:39:32;61.17;;;36.90;;
27921;SDS011;15261;50.356;10.340;2022-12-20T01:41:57;61.07;;;39.10;;
27921;SDS011;15261;50.356;10.340;2022-12-20T01:46:49;64.40;;;40.50;;
27921;SDS011;15261;50.356;10.340;2022-12-20T01:51:52;60.87;;;38.67;;
27921;SDS011;15261;50.356;10.340;2022-12-20T01:54:45;57.00;;;37.07;;
27921;SDS011;15261;50.356;10.340;2022-12-20T01:57:15;60.03;;;38.57;;
27921;SDS011;15261;50.356;10.340;2022-12-20T01:59:44;59.20;;;37.87;;
27921;SDS011;15261;50.356;10.340;2022-12-20T02:02:12;61.80;;;38.50;;
27921;SDS011;15261;50.356;10.340;2022-12-20T02:04:38;57.07;;;35.90;;
27921;SDS011;15261;50.356;10.340;2022-12-20T02:07:04;57.63;;;36.10;;
27921;SDS011;15261;50.356;10.340;2022-12-20T02:09:31;56.27;;;36.20;;
27921;SDS011;15261;50.356;10.340;2022-12-20T02:25:45;52.10;;;33.77;;
27921;SDS011;15261;50.356;10.340;2022-12-20T02:31:12;49.10;;;31.90;;
27921;SDS011;15261;50.356;10.340;2022-12-20T02:33:43;49.77;;;33.10;;
27921;SDS011;15261;50.356;10.340;2022-12-20T02:36:16;52.13;;;33.63;;
27921;SDS011;15261;50.356;10.340;2022-12-20T02:38:42;55.07;;;34.03;;
27921;SDS011;15261;50.356;10.340;2022-12-20T02:41:22;48.83;;;32.60;;
27921;SDS011;15261;50.356;10.340;2022-12-20T02:43:54;57.27;;;35.33;;
27921;SDS011;15261;50.356;10.340;2022-12-20T02:46:46;58.83;;;36.33;;
27921;SDS011;15261;50.356;10.340;2022-12-20T02:49:15;60.87;;;37.07;;
27921;SDS011;15261;50.356;10.340;2022-12-20T02:51:45;58.37;;;35.37;;
27921;SDS011;15261;50.356;10.340;2022-12-20T02:54:14;57.90;;;35.87;;
27921;SDS011;15261;50.356;10.340;2022-12-20T02:56:41;57.37;;;37.23;;
27921;SDS011;15261;50.356;10.340;2022-12-20T02:59:20;57.10;;;35.67;;
27921;SDS011;15261;50.356;10.340;2022-12-20T03:01:50;58.73;;;35.80;;
27921;SDS011;15261;50.356;10.340;2022-12-20T03:04:17;58.57;;;35.80;;
27921;SDS011;15261;50.356;10.340;2022-12-20T03:07:00;57.50;;;35.30;;
27921;SDS011;15261;50.356;10.340;2022-12-20T03:09:32;57.07;;;35.67;;
27921;SDS011;15261;50.356;10.340;2022-12-20T03:11:59;55.87;;;34.13;;
27921;SDS011;15261;50.356;10.340;2022-12-20T03:14:25;53.63;;;35.30;;
27921;SDS011;15261;50.356;10.340;2022-12-20T03:16:51;54.03;;;34.13;;
27921;SDS011;15261;50.356;10.340;2022-12-20T03:19:17;53.30;;;34.60;;
27921;SDS011;15261;50.356;10.340;2022-12-20T03:21:43;59.47;;;36.77;;
27921;SDS011;15261;50.356;10.340;2022-12-20T03:24:08;60.53;;;39.43;;
27921;SDS011;15261;50.356;10.340;2022-12-20T03:26:35;60.23;;;38.07;;
27921;SDS011;15261;50.356;10.340;2022-12-20T03:29:01;56.50;;;36.17;;
27921;SDS011;15261;50.356;10.340;2022-12-20T03:31:27;55.87;;;35.90;;
27921;SDS011;15261;50.356;10.340;2022-12-20T03:33:53;58.93;;;36.13;;
27921;SDS011;15261;50.356;10.340;2022-12-20T03:36:19;56.20;;;35.33;;
27921;SDS011;15261;50.356;10.340;2022-12-20T03:38:47;54.67;;;35.37;;
27921;SDS011;15261;50.356;10.340;2022-12-20T03:41:17;57.83;;;36.60;;
27921;SDS011;15261;50.356;10.340;2022-12-20T03:43:45;55.17;;;35.03;;
27921;SDS011;15261;50.356;10.340;2022-12-20T03:46:10;52.63;;;32.90;;
27921;SDS011;15261;50.356;10.340;2022-12-20T03:48:36;51.40;;;33.77;;
27921;SDS011;15261;50.356;10.340;2022-12-20T03:51:02;50.43;;;33.33;;
27921;SDS011;15261;50.356;10.340;2022-12-20T03:53:27;51.63;;;32.57;;
27921;SDS011;15261;50.356;10.340;2022-12-20T03:55:53;55.90;;;36.53;;
27921;SDS011;15261;50.356;10.340;2022-12-20T03:58:19;49.63;;;33.70;;
27921;SDS011;15261;50.356;10.340;2022-12-20T04:00:44;50.20;;;33.83;;
27921;SDS011;15261;50.356;10.340;2022-12-20T04:03:10;51.70;;;34.23;;
27921;SDS011;15261;50.356;10.340;2022-12-20T04:05:35;53.37;;;36.27;;
27921;SDS011;15261;50.356;10.340;2022-12-20T04:08:01;55.17;;;38.47;;
27921;SDS011;15261;50.356;10.340;2022-12-20T04:10:27;59.37;;;41.83;;
27921;SDS011;15261;50.356;10.340;2022-12-20T04:12:52;65.43;;;42.27;;
27921;SDS011;15261;50.356;10.340;2022-12-20T04:15:18;60.90;;;36.97;;
27921;SDS011;15261;50.356;10.340;2022-12-20T04:17:43;55.80;;;37.00;;
27921;SDS011;15261;50.356;10.340;2022-12-20T04:20:11;58.50;;;37.03;;
27921;SDS011;15261;50.356;10.340;2022-12-20T04:22:45;56.67;;;36.80;;
27921;SDS011;15261;50.356;10.340;2022-12-20T04:25:26;49.53;;;33.10;;
27921;SDS011;15261;50.356;10.340;2022-12-20T04:27:52;53.30;;;34.47;;
27921;SDS011;15261;50.356;10.340;2022-12-20T04:30:17;60.97;;;38.03;;
27921;SDS011;15261;50.356;10.340;2022-12-20T04:32:43;58.30;;;36.60;;
27921;SDS011;15261;50.356;10.340;2022-12-20T04:35:08;52.80;;;34.67;;
27921;SDS011;15261;50.356;10.340;2022-12-20T04:37:34;53.47;;;34.77;;
27921;SDS011;15261;50.356;10.340;2022-12-20T04:40:00;74.63;;;57.73;;
27921;SDS011;15261;50.356;10.340;2022-12-20T04:42:25;58.63;;;37.10;;
27921;SDS011;15261;50.356;10.340;2022-12-20T04:44:51;58.27;;;38.93;;
27921;SDS011;15261;50.356;10.340;2022-12-20T04:47:16;58.83;;;37.97;;
27921;SDS011;15261;50.356;10.340;2022-12-20T04:49:42;52.10;;;34.30;;
27921;SDS011;15261;50.356;10.340;2022-12-20T04:52:07;52.97;;;34.40;;
27921;SDS011;15261;50.356;10.340;2022-12-20T04:54:51;64.10;;;44.60;;
27921;SDS011;15261;50.356;10.340;2022-12-20T04:57:17;59.10;;;39.97;;
27921;SDS011;15261;50.356;10.340;2022-12-20T04:59:43;58.53;;;40.87;;
27921;SDS011;15261;50.356;10.340;2022-12-20T05:02:08;58.50;;;41.93;;
27921;SDS011;15261;50.356;10.340;2022-12-20T05:04:34;53.77;;;35.17;;
27921;SDS011;15261;50.356;10.340;2022-12-20T05:06:59;52.60;;;33.93;;
27921;SDS011;15261;50.356;10.340;2022-12-20T05:09:25;48.40;;;32.80;;
27921;SDS011;15261;50.356;10.340;2022-12-20T05:11:50;54.40;;;33.67;;
27921;SDS011;15261;50.356;10.340;2022-12-20T05:14:16;59.03;;;38.63;;
27921;SDS011;15261;50.356;10.340;2022-12-20T05:16:41;57.77;;;39.60;;
27921;SDS011;15261;50.356;10.340;2022-12-20T05:19:07;59.30;;;39.33;;
27921;SDS011;15261;50.356;10.340;2022-12-20T05:21:32;61.40;;;40.53;;
27921;SDS011;15261;50.356;10.340;2022-12-20T05:24:16;60.53;;;37.60;;
27921;SDS011;15261;50.356;10.340;2022-12-20T05:27:00;62.40;;;37.87;;
27921;SDS011;15261;50.356;10.340;2022-12-20T05:29:26;55.43;;;37.47;;
27921;SDS011;15261;50.356;10.340;2022-12-20T05:31:52;54.93;;;36.17;;
27921;SDS011;15261;50.356;10.340;2022-12-20T05:34:17;66.00;;;38.43;;
27921;SDS011;15261;50.356;10.340;2022-12-20T05:36:43;59.43;;;37.00;;
27921;SDS011;15261;50.356;10.340;2022-12-20T05:39:09;58.30;;;37.47;;
27921;SDS011;15261;50.356;10.340;2022-12-20T05:41:35;59.77;;;36.93;;
27921;SDS011;15261;50.356;10.340;2022-12-20T05:44:01;57.50;;;37.40;;
27921;SDS011;15261;50.356;10.340;2022-12-20T05:46:27;55.90;;;36.67;;
27921;SDS011;15261;50.356;10.340;2022-12-20T05:48:53;53.77;;;36.37;;
27921;SDS011;15261;50.356;10.340;2022-12-20T05:51:18;52.00;;;34.40;;
27921;SDS011;15261;50.356;10.340;2022-12-20T05:53:44;53.40;;;34.33;;
27921;SDS011;15261;50.356;10.340;2022-12-20T05:56:10;56.33;;;36.47;;
27921;SDS011;15261;50.356;10.340;2022-12-20T05:58:36;57.47;;;36.30;;
27921;SDS011;15261;50.356;10.340;2022-12-20T06:01:02;90.93;;;63.13;;
27921;SDS011;15261;50.356;10.340;2022-12-20T06:03:29;65.53;;;45.53;;
27921;SDS011;15261;50.356;10.340;2022-12-20T06:05:55;56.87;;;38.97;;
27921;SDS011;15261;50.356;10.340;2022-12-20T06:08:20;67.37;;;46.03;;
27921;SDS011;15261;50.356;10.340;2022-12-20T06:10:49;68.13;;;47.27;;
27921;SDS011;15261;50.356;10.340;2022-12-20T06:13:17;64.53;;;41.53;;
27921;SDS011;15261;50.356;10.340;2022-12-20T06:18:15;53.33;;;36.27;;
27921;SDS011;15261;50.356;10.340;2022-12-20T06:20:40;51.33;;;35.60;;
27921;SDS011;15261;50.356;10.340;2022-12-20T06:23:06;59.00;;;37.20;;
27921;SDS011;15261;50.356;10.340;2022-12-20T06:25:33;58.73;;;36.77;;
27921;SDS011;15261;50.356;10.340;2022-12-20T06:27:59;59.57;;;37.57;;
27921;SDS011;15261;50.356;10.340;2022-12-20T06:30:25;51.47;;;33.07;;
27921;SDS011;15261;50.356;10.340;2022-12-20T06:32:51;63.23;;;35.73;;
27921;SDS011;15261;50.356;10.340;2022-12-20T06:35:16;53.33;;;34.93;;
27921;SDS011;15261;50.356;10.340;2022-12-20T06:37:42;55.37;;;35.57;;
27921;SDS011;15261;50.356;10.340;2022-12-20T06:40:08;54.53;;;37.43;;
27921;SDS011;15261;50.356;10.340;2022-12-20T06:42:35;90.63;;;59.67;;
27921;SDS011;15261;50.356;10.340;2022-12-20T06:45:01;98.70;;;65.13;;
27921;SDS011;15261;50.356;10.340;2022-12-20T06:47:27;56.37;;;38.37;;
27921;SDS011;15261;50.356;10.340;2022-12-20T06:49:52;59.93;;;39.00;;
27921;SDS011;15261;50.356;10.340;2022-12-20T06:55:11;66.53;;;43.43;;
27921;SDS011;15261;50.356;10.340;2022-12-20T06:57:52;65.70;;;41.60;;
27921;SDS011;15261;50.356;10.340;2022-12-20T07:00:19;64.90;;;43.03;;
27921;SDS011;15261;50.356;10.340;2022-12-20T07:02:45;62.77;;;41.17;;
27921;SDS011;15261;50.356;10.340;2022-12-20T07:05:11;57.27;;;37.73;;
27921;SDS011;15261;50.356;10.340;2022-12-20T07:07:37;52.10;;;36.17;;
27921;SDS011;15261;50.356;10.340;2022-12-20T07:10:03;66.07;;;39.87;;
27921;SDS011;15261;50.356;10.340;2022-12-20T07:12:29;61.20;;;40.07;;
27921;SDS011;15261;50.356;10.340;2022-12-20T07:14:54;58.97;;;39.27;;
27921;SDS011;15261;50.356;10.340;2022-12-20T07:17:20;55.50;;;37.87;;
27921;SDS011;15261;50.356;10.340;2022-12-20T07:19:45;59.40;;;38.53;;
27921;SDS011;15261;50.356;10.340;2022-12-20T07:22:11;61.67;;;38.43;;
27921;SDS011;15261;50.356;10.340;2022-12-20T07:24:37;58.33;;;38.10;;
27921;SDS011;15261;50.356;10.340;2022-12-20T07:27:03;57.57;;;38.30;;
27921;SDS011;15261;50.356;10.340;2022-12-20T07:29:28;55.93;;;35.73;;
27921;SDS011;15261;50.356;10.340;2022-12-20T07:31:54;52.60;;;35.23;;
27921;SDS011;15261;50.356;10.340;2022-12-20T07:34:19;56.00;;;37.43;;
27921;SDS011;15261;50.356;10.340;2022-12-20T07:36:45;56.33;;;37.73;;
27921;SDS011;15261;50.356;10.340;2022-12-20T07:39:12;59.67;;;38.50;;
27921;SDS011;15261;50.356;10.340;2022-12-20T07:41:37;56.43;;;37.50;;
27921;SDS011;15261;50.356;10.340;2022-12-20T07:44:03;68.40;;;41.47;;
27921;SDS011;15261;50.356;10.340;2022-12-20T07:46:28;64.13;;;41.07;;
27921;SDS011;15261;50.356;10.340;2022-12-20T07:48:54;55.37;;;36.23;;
27921;SDS011;15261;50.356;10.340;2022-12-20T07:51:22;56.33;;;34.33;;
27921;SDS011;15261;50.356;10.340;2022-12-20T07:53:59;59.07;;;37.33;;
27921;SDS011;15261;50.356;10.340;2022-12-20T07:56:28;59.63;;;37.23;;
27921;SDS011;15261;50.356;10.340;2022-12-20T07:58:57;65.70;;;40.20;;
27921;SDS011;15261;50.356;10.340;2022-12-20T08:01:25;67.20;;;39.13;;
27921;SDS011;15261;50.356;10.340;2022-12-20T08:03:55;61.67;;;38.87;;
27921;SDS011;15261;50.356;10.340;2022-12-20T08:06:31;59.90;;;37.93;;
27921;SDS011;15261;50.356;10.340;2022-12-20T08:08:59;65.43;;;37.70;;
27921;SDS011;15261;50.356;10.340;2022-12-20T08:11:28;57.23;;;36.90;;
27921;SDS011;15261;50.356;10.340;2022-12-20T08:13:55;59.83;;;38.37;;
27921;SDS011;15261;50.356;10.340;2022-12-20T08:18:52;56.70;;;36.80;;
27921;SDS011;15261;50.356;10.340;2022-12-20T08:21:18;68.50;;;43.83;;
27921;SDS011;15261;50.356;10.340;2022-12-20T08:23:44;61.83;;;43.73;;
27921;SDS011;15261;50.356;10.340;2022-12-20T08:26:10;77.33;;;49.67;;
27921;SDS011;15261;50.356;10.340;2022-12-20T08:28:36;53.20;;;36.33;;
27921;SDS011;15261;50.356;10.340;2022-12-20T08:31:02;63.27;;;40.77;;
27921;SDS011;15261;50.356;10.340;2022-12-20T08:33:31;63.27;;;42.27;;
27921;SDS011;15261;50.356;10.340;2022-12-20T08:35:58;62.27;;;40.90;;
27921;SDS011;15261;50.356;10.340;2022-12-20T08:38:27;60.23;;;40.17;;
27921;SDS011;15261;50.356;10.340;2022-12-20T08:41:05;69.07;;;45.57;;
27921;SDS011;15261;50.356;10.340;2022-12-20T08:43:35;61.90;;;41.80;;
27921;SDS011;15261;50.356;10.340;2022-12-20T08:46:02;61.20;;;41.67;;
27921;SDS011;15261;50.356;10.340;2022-12-20T08:48:29;66.10;;;45.37;;
27921;SDS011;15261;50.356;10.340;2022-12-20T08:50:57;66.23;;;42.77;;
27921;SDS011;15261;50.356;10.340;2022-12-20T08:53:25;63.07;;;43.93;;
27921;SDS011;15261;50.356;10.340;2022-12-20T08:55:52;59.47;;;40.77;;
27921;SDS011;15261;50.356;10.340;2022-12-20T08:58:18;57.87;;;42.73;;
27921;SDS011;15261;50.356;10.340;2022-12-20T09:00:45;56.10;;;39.90;;
27921;SDS011;15261;50.356;10.340;2022-12-20T09:03:11;54.93;;;37.93;;
27921;SDS011;15261;50.356;10.340;2022-12-20T09:05:47;50.87;;;36.23;;
27921;SDS011;15261;50.356;10.340;2022-12-20T09:08:13;50.30;;;35.27;;
27921;SDS011;15261;50.356;10.340;2022-12-20T09:10:39;47.87;;;34.83;;
27921;SDS011;15261;50.356;10.340;2022-12-20T09:13:05;50.97;;;35.13;;
27921;SDS011;15261;50.356;10.340;2022-12-20T09:15:32;48.37;;;34.80;;
27921;SDS011;15261;50.356;10.340;2022-12-20T09:17:59;47.40;;;32.20;;
27921;SDS011;15261;50.356;10.340;2022-12-20T09:20:25;44.33;;;31.23;;
27921;SDS011;15261;50.356;10.340;2022-12-20T09:22:51;43.10;;;30.30;;
27921;SDS011;15261;50.356;10.340;2022-12-20T09:25:17;41.87;;;29.67;;
27921;SDS011;15261;50.356;10.340;2022-12-20T09:27:42;41.00;;;30.10;;
27921;SDS011;15261;50.356;10.340;2022-12-20T09:30:09;43.07;;;31.33;;
27921;SDS011;15261;50.356;10.340;2022-12-20T09:32:35;41.53;;;29.97;;
27921;SDS011;15261;50.356;10.340;2022-12-20T09:35:01;41.03;;;30.23;;
27921;SDS011;15261;50.356;10.340;2022-12-20T09:37:31;36.90;;;28.63;;
27921;SDS011;15261;50.356;10.340;2022-12-20T09:39:57;41.90;;;30.53;;
27921;SDS011;15261;50.356;10.340;2022-12-20T09:42:26;41.60;;;30.50;;
27921;SDS011;15261;50.356;10.340;2022-12-20T09:44:55;43.50;;;31.47;;
27921;SDS011;15261;50.356;10.340;2022-12-20T09:47:27;44.97;;;32.20;;
27921;SDS011;15261;50.356;10.340;2022-12-20T09:49:54;43.10;;;31.80;;
27921;SDS011;15261;50.356;10.340;2022-12-20T09:54:55;45.30;;;31.57;;
27921;SDS011;15261;50.356;10.340;2022-12-20T10:00:22;42.60;;;30.63;;
27921;SDS011;15261;50.356;10.340;2022-12-20T10:02:48;43.17;;;31.07;;
27921;SDS011;15261;50.356;10.340;2022-12-20T10:05:15;48.10;;;31.40;;
27921;SDS011;15261;50.356;10.340;2022-12-20T10:07:59;36.77;;;28.07;;
27921;SDS011;15261;50.356;10.340;2022-12-20T10:10:54;46.77;;;32.10;;
27921;SDS011;15261;50.356;10.340;2022-12-20T10:14:05;40.33;;;29.33;;
27921;SDS011;15261;50.356;10.340;2022-12-20T10:16:33;43.73;;;31.07;;
27921;SDS011;15261;50.356;10.340;2022-12-20T10:19:23;43.73;;;31.07;;
27921;SDS011;15261;50.356;10.340;2022-12-20T10:22:21;43.03;;;32.03;;
27921;SDS011;15261;50.356;10.340;2022-12-20T10:24:56;43.00;;;32.23;;
27921;SDS011;15261;50.356;10.340;2022-12-20T10:27:26;48.13;;;33.03;;
27921;SDS011;15261;50.356;10.340;2022-12-20T10:29:53;44.93;;;31.43;;
27921;SDS011;15261;50.356;10.340;2022-12-20T10:32:19;50.13;;;31.07;;
27921;SDS011;15261;50.356;10.340;2022-12-20T10:37:25;43.13;;;30.73;;
27921;SDS011;15261;50.356;10.340;2022-12-20T10:39:51;43.53;;;30.97;;
27921;SDS011;15261;50.356;10.340;2022-12-20T10:42:29;46.90;;;32.20;;
27921;SDS011;15261;50.356;10.340;2022-12-20T10:45:55;40.37;;;28.63;;
27921;SDS011;15261;50.356;10.340;2022-12-20T10:47:56;41.17;;;29.97;;
27921;SDS011;15261;50.356;10.340;2022-12-20T10:50:23;40.67;;;29.37;;
27921;SDS011;15261;50.356;10.340;2022-12-20T10:53:03;45.93;;;33.00;;
27921;SDS011;15261;50.356;10.340;2022-12-20T10:55:36;51.43;;;32.50;;
27921;SDS011;15261;50.356;10.340;2022-12-20T10:58:14;45.87;;;33.30;;
27921;SDS011;15261;50.356;10.340;2022-12-20T11:01:13;39.63;;;29.77;;
27921;SDS011;15261;50.356;10.340;2022-12-20T11:06:18;39.60;;;29.50;;
27921;SDS011;15261;50.356;10.340;2022-12-20T11:08:45;45.23;;;31.03;;
27921;SDS011;15261;50.356;10.340;2022-12-20T11:11:16;37.47;;;28.00;;
27921;SDS011;15261;50.356;10.340;2022-12-20T11:13:49;40.47;;;29.37;;
27921;SDS011;15261;50.356;10.340;2022-12-20T11:16:28;48.93;;;35.93;;
27921;SDS011;15261;50.356;10.340;2022-12-20T11:21:58;39.63;;;29.70;;
27921;SDS011;15261;50.356;10.340;2022-12-20T11:25:28;48.37;;;34.80;;
27921;SDS011;15261;50.356;10.340;2022-12-20T11:30:37;45.27;;;30.87;;
27921;SDS011;15261;50.356;10.340;2022-12-20T11:41:44;45.47;;;31.73;;
27921;SDS011;15261;50.356;10.340;2022-12-20T11:44:22;42.23;;;29.77;;
27921;SDS011;15261;50.356;10.340;2022-12-20T11:50:30;39.23;;;29.33;;
27921;SDS011;15261;50.356;10.340;2022-12-20T11:56:04;39.83;;;29.47;;
27921;SDS011;15261;50.356;10.340;2022-12-20T12:01:16;44.13;;;30.83;;
27921;SDS011;15261;50.356;10.340;2022-12-20T12:03:54;41.33;;;30.80;;
27921;SDS011;15261;50.356;10.340;2022-12-20T12:06:44;46.23;;;32.90;;
27921;SDS011;15261;50.356;10.340;2022-12-20T12:11:52;44.50;;;33.07;;
27921;SDS011;15261;50.356;10.340;2022-12-20T12:14:32;46.43;;;32.73;;
27921;SDS011;15261;50.356;10.340;2022-12-20T12:17:07;46.27;;;32.30;;
27921;SDS011;15261;50.356;10.340;2022-12-20T12:19:42;47.40;;;33.10;;
27921;SDS011;15261;50.356;10.340;2022-12-20T12:22:14;46.97;;;33.80;;
27921;SDS011;15261;50.356;10.340;2022-12-20T12:24:45;48.07;;;32.70;;
27921;SDS011;15261;50.356;10.340;2022-12-20T12:27:23;46.40;;;32.57;;
27921;SDS011;15261;50.356;10.340;2022-12-20T12:29:51;47.57;;;33.50;;
27921;SDS011;15261;50.356;10.340;2022-12-20T12:32:21;47.83;;;32.23;;
27921;SDS011;15261;50.356;10.340;2022-12-20T12:35:04;50.30;;;34.17;;
27921;SDS011;15261;50.356;10.340;2022-12-20T12:41:02;51.73;;;35.40;;
27921;SDS011;15261;50.356;10.340;2022-12-20T12:46:26;51.63;;;34.50;;
27921;SDS011;15261;50.356;10.340;2022-12-20T12:51:40;50.30;;;34.67;;
27921;SDS011;15261;50.356;10.340;2022-12-20T12:54:16;55.90;;;37.87;;
27921;SDS011;15261;50.356;10.340;2022-12-20T12:56:47;50.83;;;35.23;;
27921;SDS011;15261;50.356;10.340;2022-12-20T12:59:38;52.70;;;36.47;;
27921;SDS011;15261;50.356;10.340;2022-12-20T13:07:25;47.80;;;35.37;;
27921;SDS011;15261;50.356;10.340;2022-12-20T13:09:51;55.53;;;38.23;;
27921;SDS011;15261;50.356;10.340;2022-12-20T13:20:35;53.73;;;39.07;;
27921;SDS011;15261;50.356;10.340;2022-12-20T13:25:42;49.90;;;35.47;;
27921;SDS011;15261;50.356;10.340;2022-12-20T13:31:33;47.63;;;35.73;;
27921;SDS011;15261;50.356;10.340;2022-12-20T13:33:44;45.90;;;34.27;;
27921;SDS011;15261;50.356;10.340;2022-12-20T13:38:56;46.23;;;34.00;;
27921;SDS011;15261;50.356;10.340;2022-12-20T13:41:46;48.50;;;35.40;;
27921;SDS011;15261;50.356;10.340;2022-12-20T13:44:39;45.40;;;33.43;;
27921;SDS011;15261;50.356;10.340;2022-12-20T13:47:16;45.80;;;32.03;;
27921;SDS011;15261;50.356;10.340;2022-12-20T13:49:58;51.13;;;37.80;;
27921;SDS011;15261;50.356;10.340;2022-12-20T13:52:27;46.40;;;35.07;;
27921;SDS011;15261;50.356;10.340;2022-12-20T13:55:06;54.23;;;39.73;;
27921;SDS011;15261;50.356;10.340;2022-12-20T13:57:42;44.60;;;32.63;;
27921;SDS011;15261;50.356;10.340;2022-12-20T14:00:16;46.53;;;35.43;;
27921;SDS011;15261;50.356;10.340;2022-12-20T14:02:46;42.87;;;32.83;;
27921;SDS011;15261;50.356;10.340;2022-12-20T14:05:14;49.23;;;34.37;;
27921;SDS011;15261;50.356;10.340;2022-12-20T14:10:34;49.10;;;36.87;;
27921;SDS011;15261;50.356;10.340;2022-12-20T14:13:00;53.23;;;39.33;;
27921;SDS011;15261;50.356;10.340;2022-12-20T14:15:28;52.23;;;37.97;;
27921;SDS011;15261;50.356;10.340;2022-12-20T14:18:03;59.80;;;44.07;;
27921;SDS011;15261;50.356;10.340;2022-12-20T14:20:30;62.70;;;42.57;;
27921;SDS011;15261;50.356;10.340;2022-12-20T14:23:16;57.10;;;41.43;;
27921;SDS011;15261;50.356;10.340;2022-12-20T14:25:51;57.57;;;42.47;;
27921;SDS011;15261;50.356;10.340;2022-12-20T14:28:34;52.80;;;39.67;;
27921;SDS011;15261;50.356;10.340;2022-12-20T14:31:02;49.40;;;36.33;;
27921;SDS011;15261;50.356;10.340;2022-12-20T14:33:31;49.47;;;36.53;;
27921;SDS011;15261;50.356;10.340;2022-12-20T14:36:06;50.23;;;36.33;;
27921;SDS011;15261;50.356;10.340;2022-12-20T14:38:43;49.40;;;35.73;;
27921;SDS011;15261;50.356;10.340;2022-12-20T14:41:30;46.73;;;35.50;;
27921;SDS011;15261;50.356;10.340;2022-12-20T14:44:13;54.70;;;37.27;;
27921;SDS011;15261;50.356;10.340;2022-12-20T14:49:53;49.03;;;33.67;;
27921;SDS011;15261;50.356;10.340;2022-12-20T14:52:32;57.20;;;38.37;;
27921;SDS011;15261;50.356;10.340;2022-12-20T14:55:18;53.27;;;38.73;;
27921;SDS011;15261;50.356;10.340;2022-12-20T15:03:52;47.00;;;33.27;;
27921;SDS011;15261;50.356;10.340;2022-12-20T15:06:33;47.13;;;34.07;;
27921;SDS011;15261;50.356;10.340;2022-12-20T15:09:05;66.13;;;47.47;;
27921;SDS011;15261;50.356;10.340;2022-12-20T15:11:32;51.73;;;37.87;;
27921;SDS011;15261;50.356;10.340;2022-12-20T15:13:59;55.63;;;37.00;;
27921;SDS011;15261;50.356;10.340;2022-12-20T15:16:26;68.47;;;46.73;;
27921;SDS011;15261;50.356;10.340;2022-12-20T15:18:54;62.13;;;42.93;;
27921;SDS011;15261;50.356;10.340;2022-12-20T15:21:32;53.13;;;37.93;;
27921;SDS011;15261;50.356;10.340;2022-12-20T15:24:05;51.33;;;38.50;;
27921;SDS011;15261;50.356;10.340;2022-12-20T15:26:45;67.67;;;45.77;;
27921;SDS011;15261;50.356;10.340;2022-12-20T15:29:16;69.00;;;47.17;;
27921;SDS011;15261;50.356;10.340;2022-12-20T15:31:47;59.53;;;42.03;;
27921;SDS011;15261;50.356;10.340;2022-12-20T15:36:39;51.50;;;35.53;;
27921;SDS011;15261;50.356;10.340;2022-12-20T15:39:04;55.57;;;37.40;;
27921;SDS011;15261;50.356;10.340;2022-12-20T15:41:30;53.57;;;37.67;;
27921;SDS011;15261;50.356;10.340;2022-12-20T15:44:05;51.17;;;36.80;;
27921;SDS011;15261;50.356;10.340;2022-12-20T15:46:34;81.77;;;52.63;;
27921;SDS011;15261;50.356;10.340;2022-12-20T15:49:00;71.10;;;47.57;;
27921;SDS011;15261;50.356;10.340;2022-12-20T15:51:26;55.53;;;41.87;;
27921;SDS011;15261;50.356;10.340;2022-12-20T15:53:57;58.57;;;41.67;;
27921;SDS011;15261;50.356;10.340;2022-12-20T15:56:25;60.07;;;40.67;;
27921;SDS011;15261;50.356;10.340;2022-12-20T15:58:52;51.97;;;38.60;;
27921;SDS011;15261;50.356;10.340;2022-12-20T16:01:22;59.23;;;42.10;;
27921;SDS011;15261;50.356;10.340;2022-12-20T16:03:58;59.23;;;41.23;;
27921;SDS011;15261;50.356;10.340;2022-12-20T16:06:23;53.13;;;39.50;;
27921;SDS011;15261;50.356;10.340;2022-12-20T16:08:49;56.80;;;40.60;;
27921;SDS011;15261;50.356;10.340;2022-12-20T16:11:28;61.73;;;42.27;;
27921;SDS011;15261;50.356;10.340;2022-12-20T16:13:55;151.47;;;87.27;;
27921;SDS011;15261;50.356;10.340;2022-12-20T16:16:32;93.10;;;57.13;;
27921;SDS011;15261;50.356;10.340;2022-12-20T16:18:59;73.70;;;46.87;;